Terminal Aerodrome Forecast
Issued by NWS Spokane, WA

Home | Current Version | Previous Version | Text Only | Print | Product List | Glossary On
Versions: 1 2 3 4 5 6 7 8 9 10 11 12 13 14 15 16 17 18 19 20
000
FTUS46 KOTX 110522
TAFEAT
TAF
KEAT 110522Z 1106/1206 11002KT 3SM -SN SCT008 OVC012
     FM111200 31003KT 5SM BR BKN005 OVC020
     FM112000 14002KT 6SM BR VCSH OVC007
     FM120300 34004KT 4SM BR BKN007 OVC015=

USA.gov is the U.S. government's official web portal to all federal, state and local government web resources and services.